Time;durP1;ratioP1;P1;durP2;ratioP2;P2;SDS_P1;SDS_P2;PMS_P1;PMS_P2;Temp;Humidity;BMP_temperature;BMP_pressure;BME280_temperature;BME280_humidity;BME280_pressure;Samples;Min_cycle;Max_cycle;Signal;HPM_P1;HPM_P2
2023/10/05 00:02:10;;;;;;;8.35;2.97;;;;;;;12.41;100.00;102142.94;5009393;28;20105;-68
2023/10/05 00:04:42;;;;;;;8.35;1.77;;;;;;;12.39;100.00;102134.19;5009559;28;20033;-69
2023/10/05 00:07:24;;;;;;;6.88;2.28;;;;;;;12.37;100.00;102141.03;5009100;28;20060;-69
2023/10/05 00:09:50;;;;;;;3.95;1.77;;;;;;;12.40;100.00;102140.25;5019599;28;20105;-70
2023/10/05 00:12:20;;;;;;;8.85;2.38;;;;;;;12.39;100.00;102144.59;5028234;28;20147;-69
2023/10/05 00:15:31;;;;;;;5.90;2.40;;;;;;;12.39;100.00;102146.28;5029112;28;20456;-68
2023/10/05 00:17:38;;;;;;;7.90;2.28;;;;;;;12.37;100.00;102154.03;5027666;28;20408;-69
2023/10/05 00:20:10;;;;;;;7.43;1.90;;;;;;;12.39;100.00;102148.91;5027447;28;20546;-69
2023/10/05 00:22:35;;;;;;;6.28;2.03;;;;;;;12.40;100.00;102155.84;5028845;28;20047;-69
2023/10/05 00:25:03;;;;;;;10.18;2.78;;;;;;;12.37;100.00;102161.81;5027763;28;20448;-69
2023/10/05 00:27:29;;;;;;;6.18;2.25;;;;;;;12.37;100.00;102161.81;5028051;28;20389;-69
2023/10/05 00:29:57;;;;;;;5.50;2.20;;;;;;;12.38;100.00;102163.59;5012576;28;20028;-69
2023/10/05 00:32:23;;;;;;;8.15;2.35;;;;;;;12.34;100.00;102159.97;5008745;28;20022;-70
2023/10/05 00:34:52;;;;;;;6.22;1.98;;;;;;;12.37;100.00;102159.22;5008722;28;20030;-68
2023/10/05 00:37:17;;;;;;;5.47;1.90;;;;;;;12.34;100.00;102172.09;5008892;28;20079;-69
2023/10/05 00:39:46;;;;;;;5.95;1.45;;;;;;;12.34;100.00;102172.97;5008590;28;20030;-69
2023/10/05 00:42:12;;;;;;;6.40;1.90;;;;;;;12.34;100.00;102180.75;5008568;28;20680;-70
2023/10/05 00:44:39;;;;;;;6.43;1.90;;;;;;;12.35;100.00;102173.84;5009231;28;20104;-69
2023/10/05 00:47:06;;;;;;;8.20;2.30;;;;;;;12.35;100.00;102179.06;5008809;28;20386;-69
2023/10/05 00:49:45;;;;;;;5.93;1.73;;;;;;;12.36;100.00;102191.22;5008782;28;20021;-69
2023/10/05 00:52:15;;;;;;;6.80;2.03;;;;;;;12.35;100.00;102179.94;5009073;28;20052;-69
2023/10/05 00:54:45;;;;;;;8.23;2.50;;;;;;;12.34;100.00;102183.34;5009909;28;20029;-69
2023/10/05 00:57:14;;;;;;;5.15;1.67;;;;;;;12.33;100.00;102180.69;5008689;28;20083;-69
2023/10/05 00:59:40;;;;;;;8.07;2.10;;;;;;;12.30;100.00;102175.34;5009365;28;20045;-69
2023/10/05 01:02:14;;;;;;;6.90;1.67;;;;;;;12.31;100.00;102174.53;5009767;28;20064;-69
2023/10/05 01:07:27;;;;;;;5.40;2.10;;;;;;;12.29;100.00;102176.16;5009144;28;20504;-69
2023/10/05 01:10:21;;;;;;;6.50;1.85;;;;;;;12.28;100.00;102177.88;5008345;28;20493;-69
2023/10/05 01:12:47;;;;;;;4.65;2.05;;;;;;;12.26;100.00;102184.72;5008399;28;20058;-69
2023/10/05 01:15:19;;;;;;;6.50;2.13;;;;;;;12.28;100.00;102182.19;5008634;28;20025;-69
2023/10/05 01:17:45;;;;;;;6.15;2.28;;;;;;;12.29;100.00;102174.47;5008773;28;20571;-69
2023/10/05 01:22:44;;;;;;;10.38;1.90;;;;;;;12.23;100.00;102167.25;5008356;28;20532;-69
2023/10/05 01:25:14;;;;;;;7.20;2.38;;;;;;;12.21;100.00;102173.22;5011000;28;20487;-69
2023/10/05 01:27:45;;;;;;;8.30;2.00;;;;;;;12.21;100.00;102171.53;5018343;28;20040;-69
2023/10/05 01:30:16;;;;;;;11.05;2.58;;;;;;;12.20;100.00;102174.03;5026638;28;20378;-71
2023/10/05 01:32:46;;;;;;;7.15;1.90;;;;;;;12.20;100.00;102172.31;5026631;28;20468;-68
2023/10/05 01:35:13;;;;;;;9.13;2.50;;;;;;;12.16;100.00;102167.78;5026398;28;20021;-69
2023/10/05 01:37:46;;;;;;;7.38;3.20;;;;;;;12.18;100.00;102165.28;5027040;28;20397;-69
2023/10/05 01:42:46;;;;;;;6.90;2.45;;;;;;;12.13;100.00;102178.06;5024534;28;20560;-69
2023/10/05 01:45:23;;;;;;;10.38;2.22;;;;;;;12.12;100.00;102160.69;5026506;28;20454;-69
2023/10/05 01:47:49;;;;;;;9.73;2.10;;;;;;;12.11;100.00;102172.78;5026213;28;20029;-69
2023/10/05 01:50:27;;;;;;;7.40;2.25;;;;;;;12.11;100.00;102153.69;5026700;28;20432;-69
2023/10/05 01:53:01;;;;;;;4.78;1.80;;;;;;;12.10;100.00;102157.13;5029717;28;20548;-69
2023/10/05 01:55:27;;;;;;;6.38;2.05;;;;;;;12.09;100.00;102158.81;5029644;28;20457;-69
2023/10/05 01:57:53;;;;;;;9.20;2.30;;;;;;;12.09;100.00;102151.03;5029259;28;20025;-69
2023/10/05 02:00:19;;;;;;;8.30;2.10;;;;;;;12.10;100.00;102154.53;5030096;28;20295;-69
2023/10/05 02:02:46;;;;;;;6.20;2.25;;;;;;;12.08;100.00;102150.94;5028670;28;20531;-69
2023/10/05 02:05:13;;;;;;;6.90;2.33;;;;;;;12.07;100.00;102149.16;5029927;28;20052;-70
2023/10/05 02:07:38;;;;;;;6.82;2.50;;;;;;;12.08;100.00;102150.94;5029389;28;20104;-69
2023/10/05 02:10:09;;;;;;;7.97;2.40;;;;;;;12.06;100.00;102155.16;5029950;28;20190;-69
2023/10/05 02:12:35;;;;;;;8.73;2.50;;;;;;;12.05;100.00;102154.28;5030148;28;20037;-70
2023/10/05 02:15:12;;;;;;;6.38;2.17;;;;;;;12.04;100.00;102155.09;5027836;28;20029;-69
2023/10/05 02:17:42;;;;;;;6.80;2.20;;;;;;;12.03;100.00;102149.84;5008454;28;20097;-70
2023/10/05 02:20:13;;;;;;;6.53;2.30;;;;;;;11.97;100.00;102146.13;5027134;28;20049;-69
2023/10/05 02:22:40;;;;;;;7.07;2.30;;;;;;;11.99;100.00;102144.50;5029533;28;20100;-69
2023/10/05 02:25:08;;;;;;;7.93;2.78;;;;;;;12.02;100.00;102138.53;5026285;28;20026;-70
2023/10/05 02:27:38;;;;;;;6.80;2.13;;;;;;;11.98;100.00;102150.50;5029244;28;20028;-70
2023/10/05 02:30:09;;;;;;;5.40;1.90;;;;;;;11.99;100.00;102144.50;5012693;28;20021;-69
2023/10/05 02:32:34;;;;;;;5.50;1.80;;;;;;;11.97;100.00;102151.31;5009862;28;20104;-70
2023/10/05 02:35:06;;;;;;;5.82;2.72;;;;;;;11.97;100.00;102151.31;5010563;28;20117;-69
2023/10/05 02:37:36;;;;;;;7.32;2.35;;;;;;;11.96;100.00;102143.47;5010560;28;20045;-69
2023/10/05 02:40:07;;;;;;;7.20;2.55;;;;;;;11.94;100.00;102143.41;5010210;28;20079;-69
2023/10/05 02:42:35;;;;;;;5.53;2.42;;;;;;;11.92;100.00;102134.63;5009629;28;20080;-69
2023/10/05 02:45:03;;;;;;;6.75;2.40;;;;;;;11.91;100.00;102130.25;4997648;28;20050;-69
2023/10/05 02:47:29;;;;;;;5.60;2.22;;;;;;;11.91;100.00;102129.38;5010993;28;20028;-69
2023/10/05 02:49:56;;;;;;;9.32;2.65;;;;;;;11.78;100.00;102121.00;5010332;28;20026;-69
2023/10/05 02:52:21;;;;;;;9.60;2.30;;;;;;;11.74;100.00;102116.47;5011870;28;20059;-70
2023/10/05 02:54:49;;;;;;;4.72;2.10;;;;;;;11.73;100.00;102118.16;5010323;28;20028;-69
2023/10/05 02:57:19;;;;;;;8.63;2.40;;;;;;;11.74;100.00;102114.78;5011059;28;20474;-69
2023/10/05 02:59:46;;;;;;;7.53;1.92;;;;;;;11.73;100.00;102131.16;5010097;28;20036;-70
2023/10/05 03:02:16;;;;;;;5.32;2.30;;;;;;;11.74;100.00;102122.56;5010587;28;20140;-69
2023/10/05 03:04:47;;;;;;;7.78;2.72;;;;;;;11.74;100.00;102124.25;5010177;28;20330;-70
2023/10/05 03:07:17;;;;;;;7.40;2.35;;;;;;;11.72;100.00;102129.38;5010505;28;20509;-68
2023/10/05 03:09:44;;;;;;;7.30;2.70;;;;;;;11.73;100.00;102125.97;5010256;28;20103;-69
2023/10/05 03:12:11;;;;;;;7.95;2.33;;;;;;;11.74;100.00;102122.56;5010715;28;20117;-70
2023/10/05 03:14:36;;;;;;;7.82;2.50;;;;;;;11.74;100.00;102126.84;5010462;28;20498;-69
2023/10/05 03:17:11;;;;;;;8.48;2.55;;;;;;;11.74;100.00;102127.75;5010339;28;20054;-69
2023/10/05 03:19:36;;;;;;;6.65;2.33;;;;;;;11.71;100.00;102114.59;5010313;28;20040;-68
2023/10/05 03:22:04;;;;;;;8.93;2.45;;;;;;;11.73;100.00;102115.56;5010320;28;20030;-70
2023/10/05 03:24:30;;;;;;;7.20;2.75;;;;;;;11.72;100.00;102121.59;5009746;28;20069;-70
2023/10/05 03:26:56;;;;;;;5.32;2.60;;;;;;;11.71;100.00;102116.31;5015330;28;20051;-69
2023/10/05 03:29:21;;;;;;;7.03;2.58;;;;;;;11.72;100.00;102124.19;5028000;28;20038;-69
2023/10/05 03:34:32;;;;;;;8.48;2.50;;;;;;;11.70;100.00;102115.44;5009320;28;20033;-68
2023/10/05 03:37:03;;;;;;;6.75;2.33;;;;;;;11.67;100.00;102115.28;4996278;28;20041;-68
2023/10/05 03:39:33;;;;;;;6.55;3.20;;;;;;;11.64;100.00;102109.94;5009386;28;20033;-69
2023/10/05 03:41:58;;;;;;;8.80;2.53;;;;;;;11.63;100.00;102118.53;5008881;28;20529;-69
2023/10/05 03:44:24;;;;;;;6.80;2.70;;;;;;;11.62;100.00;102117.66;5008097;28;20048;-69
2023/10/05 03:46:49;;;;;;;9.35;2.85;;;;;;;11.64;100.00;102115.13;5009500;28;20026;-69
2023/10/05 03:49:15;;;;;;;6.63;2.35;;;;;;;11.60;100.00;102113.22;5021682;28;20021;-69
2023/10/05 03:51:49;;;;;;;8.48;4.07;;;;;;;11.59;100.00;102111.41;5016099;28;20056;-69
2023/10/05 03:54:15;;;;;;;8.00;2.83;;;;;;;11.58;100.00;102118.34;5026862;28;20029;-69
2023/10/05 03:56:42;;;;;;;9.38;2.75;;;;;;;11.57;100.00;102123.44;5028068;28;20029;-69
2023/10/05 03:59:08;;;;;;;6.85;3.05;;;;;;;11.58;100.00;102123.53;5026870;28;20057;-69
2023/10/05 04:01:34;;;;;;;6.25;2.60;;;;;;;11.56;100.00;102106.09;5028010;28;20469;-68
2023/10/05 04:04:04;;;;;;;4.85;2.97;;;;;;;11.51;100.00;102104.16;5026937;28;20029;-69
2023/10/05 04:06:30;;;;;;;8.90;3.22;;;;;;;11.49;100.00;102111.00;5026885;28;20419;-69
2023/10/05 04:08:59;;;;;;;7.15;3.17;;;;;;;11.50;100.00;102107.56;5027571;28;20108;-69
2023/10/05 04:11:29;;;;;;;9.30;2.88;;;;;;;11.51;100.00;102109.34;5027665;28;20544;-69
2023/10/05 04:13:55;;;;;;;5.30;2.58;;;;;;;11.52;100.00;102100.75;5026291;28;20055;-69
2023/10/05 04:16:33;;;;;;;6.38;2.28;;;;;;;11.52;100.00;102113.72;5027423;28;20116;-69
2023/10/05 04:19:03;;;;;;;8.85;2.70;;;;;;;11.54;100.00;102116.41;5022138;28;20032;-69
2023/10/05 04:21:29;;;;;;;6.83;3.10;;;;;;;11.53;100.00;102114.63;5008523;28;20060;-70
2023/10/05 04:23:58;;;;;;;8.52;2.47;;;;;;;11.55;100.00;102120.75;5008191;28;20431;-70
2023/10/05 04:26:32;;;;;;;6.53;2.55;;;;;;;11.54;100.00;102126.78;5008908;28;20026;-68
2023/10/05 04:28:58;;;;;;;7.63;2.90;;;;;;;11.51;100.00;102122.31;5027624;28;20071;-69
2023/10/05 04:31:27;;;;;;;7.65;2.75;;;;;;;11.50;100.00;102122.25;5027238;28;20226;-69
2023/10/05 04:33:55;;;;;;;7.38;2.88;;;;;;;11.47;100.00;102117.81;5027427;28;20033;-69
2023/10/05 04:36:22;;;;;;;7.53;2.78;;;;;;;11.47;100.00;102119.50;5026094;28;20029;-70
2023/10/05 04:38:48;;;;;;;8.45;2.90;;;;;;;11.44;100.00;102116.78;5027097;28;20136;-69
2023/10/05 04:41:13;;;;;;;5.40;2.47;;;;;;;11.42;100.00;102127.09;5025098;28;20045;-69
2023/10/05 04:43:43;;;;;;;6.93;3.30;;;;;;;11.40;100.00;102120.94;5027393;28;20378;-68
2023/10/05 04:46:09;;;;;;;13.25;2.70;;;;;;;11.37;100.00;102125.97;5026075;28;20406;-69
2023/10/05 04:48:35;;;;;;;7.20;2.97;;;;;;;11.36;100.00;102118.97;5027204;28;20021;-70
2023/10/05 04:51:01;;;;;;;9.35;2.92;;;;;;;11.33;100.00;102132.72;5025350;28;20438;-69
2023/10/05 04:53:27;;;;;;;7.03;3.08;;;;;;;11.32;100.00;102117.03;5027275;28;20047;-68
2023/10/05 04:56:00;;;;;;;7.70;3.30;;;;;;;11.32;100.00;102117.03;5011961;28;20036;-69
2023/10/05 04:58:52;;;;;;;8.65;2.65;;;;;;;11.30;100.00;102114.38;5008113;28;20080;-69
2023/10/05 05:01:29;;;;;;;9.40;2.78;;;;;;;11.31;100.00;102112.69;5002130;28;20071;-69
2023/10/05 05:03:56;;;;;;;6.65;2.70;;;;;;;11.32;100.00;102104.06;5026135;28;20041;-69
2023/10/05 05:06:25;;;;;;;6.57;2.67;;;;;;;11.28;100.00;102111.72;5025156;28;20498;-68
2023/10/05 05:08:51;;;;;;;6.47;3.15;;;;;;;11.28;100.00;102111.72;5012365;28;20654;-69
2023/10/05 05:11:18;;;;;;;7.10;2.92;;;;;;;11.29;100.00;102117.78;5004599;28;20029;-69
2023/10/05 05:13:44;;;;;;;10.63;3.55;;;;;;;11.29;100.00;102120.38;5004640;28;20034;-70
2023/10/05 05:16:11;;;;;;;10.07;2.72;;;;;;;11.29;100.00;102123.88;5004107;28;20042;-69
2023/10/05 05:18:37;;;;;;;6.32;3.10;;;;;;;11.29;100.00;102120.38;5002196;28;20030;-69
2023/10/05 05:21:04;;;;;;;10.15;3.55;;;;;;;11.27;100.00;102120.31;5004335;28;20030;-69
2023/10/05 05:23:29;;;;;;;4.97;2.92;;;;;;;11.27;100.00;102117.72;5004465;28;20033;-69
2023/10/05 05:25:54;;;;;;;7.55;3.17;;;;;;;11.23;100.00;102128.75;5005941;28;20044;-69
2023/10/05 05:28:21;;;;;;;7.72;3.65;;;;;;;11.26;100.00;102130.63;5008302;28;20471;-69
2023/10/05 05:30:47;;;;;;;6.50;2.97;;;;;;;11.25;100.00;102132.31;5008769;28;20034;-69
2023/10/05 05:33:12;;;;;;;6.38;3.20;;;;;;;11.26;100.00;102134.09;5006806;28;20029;-70
2023/10/05 05:35:43;;;;;;;5.93;2.65;;;;;;;11.26;100.00;102136.69;5008727;28;20101;-68
2023/10/05 05:38:09;;;;;;;7.15;3.03;;;;;;;11.28;100.00;102135.06;5005776;28;20051;-68
2023/10/05 05:40:36;;;;;;;6.50;2.90;;;;;;;11.28;100.00;102135.06;4999395;28;20050;-69
2023/10/05 05:43:07;;;;;;;7.50;3.22;;;;;;;11.29;100.00;102133.38;5006873;28;20057;-69
2023/10/05 05:45:33;;;;;;;6.28;2.80;;;;;;;11.26;100.00;102134.09;5006630;28;20068;-70
2023/10/05 05:47:58;;;;;;;11.32;3.00;;;;;;;11.26;100.00;102147.06;5006301;28;20313;-69
2023/10/05 05:50:28;;;;;;;7.53;3.40;;;;;;;11.24;100.00;102138.31;5005418;28;20246;-69
2023/10/05 05:52:56;;;;;;;8.05;3.05;;;;;;;11.27;100.00;102151.47;5006347;28;20033;-67
2023/10/05 05:55:22;;;;;;;9.82;3.97;;;;;;;11.26;100.00;102149.66;5006488;28;20042;-69
2023/10/05 05:57:50;;;;;;;8.40;3.65;;;;;;;11.28;100.00;102152.31;4998812;28;20127;-69
2023/10/05 06:00:18;;;;;;;10.88;3.42;;;;;;;11.29;100.00;102149.84;5007647;28;20461;-70
2023/10/05 06:02:44;;;;;;;6.68;3.53;;;;;;;11.31;100.00;102147.31;5006847;28;20029;-69
2023/10/05 06:05:10;;;;;;;5.82;2.90;;;;;;;11.32;100.00;102148.19;5007735;28;20022;-69
2023/10/05 06:07:38;;;;;;;12.93;3.28;;;;;;;11.30;100.00;102142.91;5008118;28;20026;-69
2023/10/05 06:10:11;;;;;;;8.50;3.10;;;;;;;11.32;100.00;102143.00;5006462;28;20068;-69
2023/10/05 06:12:37;;;;;;;8.30;3.30;;;;;;;11.31;100.00;102146.41;5007683;28;20041;-69
2023/10/05 06:15:03;;;;;;;12.43;4.28;;;;;;;11.35;100.00;102156.16;5008133;28;20048;-68
2023/10/05 06:17:29;;;;;;;9.32;3.60;;;;;;;11.35;100.00;102159.59;5000153;28;20030;-70
2023/10/05 06:19:54;;;;;;;9.32;3.22;;;;;;;11.38;100.00;102158.88;5011725;28;20060;-69
2023/10/05 06:22:20;;;;;;;6.80;3.20;;;;;;;11.40;100.00;102159.84;5020588;28;20033;-68
2023/10/05 06:24:46;;;;;;;8.85;3.42;;;;;;;11.42;100.00;102163.41;5021374;28;20465;-71
2023/10/05 06:27:11;;;;;;;6.90;3.28;;;;;;;11.43;100.00;102165.19;5008821;28;20068;-70
2023/10/05 06:29:36;;;;;;;8.57;3.35;;;;;;;11.45;100.00;102171.34;5003910;28;20368;-70
2023/10/05 06:32:08;;;;;;;6.15;3.55;;;;;;;11.46;100.00;102172.25;5007537;28;20030;-68
2023/10/05 06:34:37;;;;;;;7.45;3.33;;;;;;;11.50;100.00;102179.34;5007106;28;20404;-68
2023/10/05 06:37:02;;;;;;;9.27;3.10;;;;;;;11.50;100.00;102175.06;5017840;28;20030;-70
2023/10/05 06:39:29;;;;;;;8.68;3.03;;;;;;;11.52;100.00;102180.31;5013388;28;20022;-71
2023/10/05 06:41:55;;;;;;;7.28;3.25;;;;;;;11.53;100.00;102180.41;5021630;28;20057;-70
2023/10/05 06:44:20;;;;;;;9.55;3.75;;;;;;;11.57;100.00;102178.84;5013762;28;20029;-71
2023/10/05 06:46:45;;;;;;;6.30;3.35;;;;;;;11.60;100.00;102185.91;5010628;28;20057;-71
2023/10/05 06:49:11;;;;;;;9.00;3.30;;;;;;;11.60;100.00;102181.59;5013411;28;20057;-71
2023/10/05 06:51:43;;;;;;;7.90;3.40;;;;;;;11.64;100.00;102185.22;5012759;28;20065;-72
2023/10/05 06:54:08;;;;;;;8.77;3.60;;;;;;;11.65;100.00;102189.63;5020907;28;20088;-71
2023/10/05 06:56:33;;;;;;;10.05;3.42;;;;;;;11.66;100.00;102188.78;5007538;28;20091;-70
2023/10/05 06:58:59;;;;;;;7.30;3.45;;;;;;;11.70;100.00;102202.81;5015233;28;20033;-71
2023/10/05 07:01:24;;;;;;;9.93;3.70;;;;;;;11.70;100.00;102203.72;5017021;28;20120;-71
2023/10/05 07:03:55;;;;;;;10.48;3.72;;;;;;;11.73;100.00;102209.06;5010371;28;20509;-71
2023/10/05 07:06:27;;;;;;;9.02;3.90;;;;;;;11.77;100.00;102205.81;5024716;28;20112;-71
2023/10/05 07:08:53;;;;;;;7.50;3.33;;;;;;;11.77;100.00;102204.91;5022333;28;20029;-71
2023/10/05 07:11:19;;;;;;;11.30;3.58;;;;;;;11.81;100.00;102206.84;5026435;28;20013;-70
2023/10/05 07:13:46;;;;;;;10.45;3.97;;;;;;;11.82;100.00;102212.94;5023043;28;20033;-69
2023/10/05 07:16:11;;;;;;;12.65;3.38;;;;;;;11.86;100.00;102220.03;5022231;28;20017;-70
2023/10/05 07:18:37;;;;;;;10.65;3.83;;;;;;;11.91;100.00;102223.75;5012084;28;20021;-71
2023/10/05 07:21:04;;;;;;;10.68;3.60;;;;;;;11.95;100.00;102220.50;5015594;28;20030;-70
2023/10/05 07:23:29;;;;;;;7.88;3.58;;;;;;;12.01;100.00;102230.28;5010024;28;20057;-72
2023/10/05 07:25:55;;;;;;;10.27;3.47;;;;;;;12.06;100.00;102233.09;5010549;28;20657;-71
2023/10/05 07:28:20;;;;;;;7.85;3.65;;;;;;;12.13;100.00;102230.00;5009602;28;20099;-70
2023/10/05 07:30:45;;;;;;;10.27;3.55;;;;;;;12.17;100.00;102226.75;5008813;28;20398;-72
2023/10/05 07:33:11;;;;;;;8.45;3.70;;;;;;;12.23;100.00;102234.84;5011243;28;20039;-72
2023/10/05 07:35:38;;;;;;;9.77;3.58;;;;;;;12.30;100.00;102246.44;5019339;28;20029;-72
2023/10/05 07:38:04;;;;;;;6.93;3.15;;;;;;;12.38;100.00;102251.97;5008291;28;20022;-71
2023/10/05 07:40:29;;;;;;;9.50;3.25;;;;;;;12.43;100.00;102250.47;5005380;28;20080;-71
2023/10/05 07:42:56;;;;;;;7.90;3.30;;;;;;;12.51;100.00;102257.75;5006516;28;20033;-71
2023/10/05 07:45:22;;;;;;;8.02;3.33;;;;;;;12.61;100.00;102260.84;5009670;28;20030;-71
2023/10/05 07:47:48;;;;;;;8.30;3.25;;;;;;;12.75;100.00;102263.22;5009657;28;20108;-72
2023/10/05 07:50:14;;;;;;;6.25;2.80;;;;;;;12.85;100.00;102268.00;5009387;28;20537;-72
2023/10/05 07:52:43;;;;;;;8.32;3.33;;;;;;;12.91;100.00;102270.00;5010870;28;20288;-72
2023/10/05 07:55:08;;;;;;;8.23;2.90;;;;;;;12.96;100.00;102268.50;5009440;28;20018;-72
2023/10/05 07:57:34;;;;;;;7.82;3.92;;;;;;;12.99;100.00;102259.03;5010897;28;20026;-72
2023/10/05 07:59:59;;;;;;;9.02;3.85;;;;;;;13.09;100.00;102259.53;5009849;28;20034;-69
2023/10/05 08:02:24;;;;;;;9.02;3.65;;;;;;;13.21;100.00;102259.16;5011190;28;20226;-72
2023/10/05 08:04:50;;;;;;;8.50;3.38;;;;;;;13.45;100.00;102263.63;5009430;28;20397;-71
2023/10/05 08:07:15;;;;;;;7.45;3.38;;;;;;;13.83;100.00;102269.56;5011270;28;20076;-71
2023/10/05 08:09:42;;;;;;;6.75;3.03;;;;;;;14.14;100.00;102266.47;5012825;28;20023;-72
2023/10/05 08:12:08;;;;;;;7.25;2.92;;;;;;;14.49;100.00;102273.91;5014107;28;20494;-72
2023/10/05 08:14:33;;;;;;;9.60;3.15;;;;;;;14.74;100.00;102271.34;5009353;28;20014;-72
2023/10/05 08:16:59;;;;;;;6.70;2.92;;;;;;;14.95;100.00;102280.84;5008427;28;20030;-71
2023/10/05 08:19:25;;;;;;;9.77;2.78;;;;;;;15.31;100.00;102283.00;5014461;28;20562;-72
2023/10/05 08:21:54;;;;;;;8.88;2.47;;;;;;;15.64;100.00;102275.38;5016814;28;20045;-72
2023/10/05 08:24:23;;;;;;;7.32;3.20;;;;;;;15.59;100.00;102277.84;5025816;28;20029;-72
2023/10/05 08:26:49;;;;;;;8.80;2.60;;;;;;;15.62;100.00;102285.78;5011729;28;20044;-71
2023/10/05 08:29:22;;;;;;;9.27;3.67;;;;;;;15.59;100.00;102286.56;5006814;28;20037;-72
2023/10/05 08:31:47;;;;;;;6.47;2.63;;;;;;;15.60;100.00;102290.06;5006014;28;20434;-72
2023/10/05 08:34:20;;;;;;;6.18;2.83;;;;;;;15.47;100.00;102291.38;5011804;28;20058;-71
2023/10/05 08:36:45;;;;;;;6.15;2.72;;;;;;;15.31;100.00;102293.44;5008119;28;20448;-71
2023/10/05 08:39:13;;;;;;;7.10;2.80;;;;;;;15.18;100.00;102286.00;5007391;28;20021;-72
2023/10/05 08:41:41;;;;;;;6.53;2.30;;;;;;;15.16;100.00;102291.19;5007457;28;20525;-72
2023/10/05 08:44:17;;;;;;;8.48;2.53;;;;;;;15.12;100.00;102291.88;5007555;28;20617;-72
2023/10/05 08:46:43;;;;;;;9.23;3.08;;;;;;;15.04;100.00;102294.22;5005386;28;20052;-71
2023/10/05 08:49:10;;;;;;;7.28;2.70;;;;;;;14.91;100.00;102303.34;5020470;28;20025;-70
2023/10/05 08:51:39;;;;;;;10.23;3.03;;;;;;;14.85;100.00;102304.00;5013102;28;20389;-71
2023/10/05 08:54:09;;;;;;;7.72;2.92;;;;;;;14.76;100.00;102301.00;5007713;28;20029;-71
2023/10/05 08:56:47;;;;;;;8.60;3.20;;;;;;;14.74;100.00;102305.25;5009739;28;20537;-71
2023/10/05 08:59:13;;;;;;;5.82;3.35;;;;;;;14.76;100.00;102308.81;5016333;28;20292;-71
2023/10/05 09:01:42;;;;;;;11.63;3.10;;;;;;;14.79;100.00;102308.94;5014931;28;20033;-72
2023/10/05 09:04:23;;;;;;;10.77;3.65;;;;;;;14.82;100.00;102314.28;5016661;28;20032;-71
2023/10/05 09:06:52;;;;;;;8.05;2.75;;;;;;;14.77;100.00;102313.19;5013344;28;20081;-68
2023/10/05 09:09:38;;;;;;;8.50;2.55;;;;;;;14.75;100.00;102317.50;5001370;28;20041;-68
2023/10/05 09:12:35;;;;;;;8.98;2.75;;;;;;;14.76;100.00;102329.69;4991344;28;20063;-68
2023/10/05 09:17:54;;;;;;;7.38;3.03;;;;;;;14.77;100.00;102336.69;5003687;28;20041;-67
2023/10/05 09:20:33;;;;;;;5.82;2.45;;;;;;;14.75;100.00;102349.66;4999925;28;20382;-68
2023/10/05 09:23:00;;;;;;;8.32;2.42;;;;;;;14.79;100.00;102347.19;5004076;28;20512;-66
2023/10/05 09:25:39;;;;;;;7.22;2.42;;;;;;;14.81;100.00;102354.28;5004702;28;20025;-66
2023/10/05 09:28:16;;;;;;;9.38;2.35;;;;;;;14.84;100.00;102348.28;5003965;28;20022;-67
2023/10/05 09:30:56;;;;;;;4.97;1.80;;;;;;;14.84;100.00;102359.59;5003203;28;20108;-66
2023/10/05 09:33:25;;;;;;;6.63;2.42;;;;;;;14.87;100.00;102354.53;5003214;28;20092;-67
2023/10/05 09:35:52;;;;;;;6.47;2.70;;;;;;;14.81;100.00;102351.66;5002967;28;20029;-67
2023/10/05 09:38:21;;;;;;;9.57;2.30;;;;;;;14.83;100.00;102350.00;5002384;28;20279;-67
2023/10/05 09:40:47;;;;;;;7.20;2.47;;;;;;;14.86;100.00;102351.81;5002910;28;20054;-67
2023/10/05 09:43:18;;;;;;;5.50;2.63;;;;;;;14.81;100.00;102348.13;5002721;28;20029;-67
2023/10/05 09:45:45;;;;;;;4.78;2.38;;;;;;;14.82;100.00;102347.34;5004416;28;20485;-67
2023/10/05 09:48:13;;;;;;;5.32;2.10;;;;;;;14.85;100.00;102348.34;5004728;28;20045;-67
2023/10/05 09:50:38;;;;;;;5.43;2.13;;;;;;;14.88;100.00;102344.94;5004407;28;20030;-67
2023/10/05 09:53:06;;;;;;;6.18;2.20;;;;;;;14.90;100.00;102340.69;5004438;28;20073;-67
2023/10/05 09:55:33;;;;;;;10.48;2.25;;;;;;;14.91;100.00;102349.41;5005066;28;20030;-67
2023/10/05 09:58:12;;;;;;;6.55;2.55;;;;;;;14.91;100.00;102345.09;5004078;28;20029;-67
2023/10/05 10:03:05;;;;;;;6.25;2.38;;;;;;;14.92;100.00;102348.56;5004949;28;20044;-67
2023/10/05 10:05:38;;;;;;;9.55;3.10;;;;;;;14.94;100.00;102347.81;5004164;28;20022;-67
2023/10/05 10:08:14;;;;;;;8.60;2.50;;;;;;;14.96;100.00;102353.09;5002266;28;20058;-66
2023/10/05 10:10:51;;;;;;;6.15;2.22;;;;;;;14.99;100.00;102354.09;5004367;28;20462;-67
2023/10/05 10:13:21;;;;;;;26.27;7.85;;;;;;;15.00;100.00;102355.00;5007601;28;20034;-66
2023/10/05 10:15:47;;;;;;;8.25;3.08;;;;;;;15.03;100.00;102357.69;5007869;28;20018;-67
2023/10/05 10:18:15;;;;;;;7.55;2.60;;;;;;;15.05;100.00;102357.75;5008334;28;20373;-67
2023/10/05 10:20:48;;;;;;;13.70;4.45;;;;;;;15.04;100.00;102356.84;5007595;28;20026;-68
2023/10/05 10:23:19;;;;;;;24.27;5.47;;;;;;;15.08;100.00;102358.75;5004508;28;20018;-67
2023/10/05 10:25:45;;;;;;;;;;;;;;;15.12;100.00;102360.66;5008487;28;20200;-67
2023/10/05 10:28:17;;;;;;;8.15;2.67;;;;;;;15.16;100.00;102361.66;5007672;28;19910;-67
2023/10/05 10:30:47;;;;;;;5.97;2.30;;;;;;;15.18;100.00;102359.13;5007554;28;20029;-67
2023/10/05 10:33:30;;;;;;;8.85;2.70;;;;;;;15.21;100.00;102349.66;5006963;28;20065;-66
2023/10/05 10:35:57;;;;;;;7.20;2.13;;;;;;;15.19;100.00;102351.34;5008324;28;20060;-67
2023/10/05 10:38:23;;;;;;;5.50;2.33;;;;;;;15.24;100.00;102354.09;5007213;28;20025;-67
2023/10/05 10:41:07;;;;;;;9.48;2.30;;;;;;;15.31;100.00;102350.88;5002774;28;20050;-67
2023/10/05 10:43:33;;;;;;;5.75;2.15;;;;;;;15.32;100.00;102352.69;5006883;28;20030;-67
2023/10/05 10:45:59;;;;;;;7.25;2.58;;;;;;;15.42;100.00;102352.97;5006035;28;20084;-66
2023/10/05 10:48:29;;;;;;;7.63;2.67;;;;;;;15.47;100.00;102357.56;5006820;28;20105;-68
2023/10/05 10:50:59;;;;;;;6.95;2.47;;;;;;;15.56;100.00;102364.81;5007555;28;20525;-67
2023/10/05 10:53:30;;;;;;;7.80;2.60;;;;;;;15.64;100.00;102353.75;5006744;28;20026;-67
2023/10/05 10:56:03;;;;;;;7.05;1.95;;;;;;;15.74;100.00;102342.78;5006814;28;20501;-67
2023/10/05 10:58:30;;;;;;;7.50;2.50;;;;;;;15.88;100.00;102342.38;5007120;28;20501;-69
2023/10/05 11:00:59;;;;;;;10.88;2.42;;;;;;;15.99;100.00;102346.25;5006912;28;20095;-69
2023/10/05 11:03:26;;;;;;;5.78;2.20;;;;;;;16.15;100.00;102342.47;5006860;28;20478;-68
2023/10/05 11:05:57;;;;;;;6.68;2.17;;;;;;;16.36;100.00;102345.69;5006910;28;20095;-69
2023/10/05 11:08:23;;;;;;;7.32;2.47;;;;;;;16.53;100.00;102336.66;5005015;28;20379;-69
2023/10/05 11:10:54;;;;;;;7.57;2.30;;;;;;;16.75;100.00;102339.91;5010706;28;20038;-69
2023/10/05 11:13:19;;;;;;;;;;;;;;;16.85;100.00;102342.81;5009763;28;20109;-69
2023/10/05 11:16:00;;;;;;;7.70;2.35;;;;;;;16.93;100.00;102346.53;5023030;28;20012;-69
2023/10/05 11:18:30;;;;;;;6.00;2.60;;;;;;;17.00;100.00;102342.41;5000894;28;20276;-69
2023/10/05 11:21:07;;;;;;;7.38;2.88;;;;;;;17.08;100.00;102342.59;5008351;28;20549;-69
2023/10/05 11:23:47;;;;;;;8.45;2.58;;;;;;;17.09;100.00;102350.50;5010085;28;20497;-69
2023/10/05 11:26:18;;;;;;;7.68;2.88;;;;;;;17.10;100.00;102347.09;5010634;28;20028;-69
2023/10/05 11:28:51;;;;;;;7.38;2.42;;;;;;;17.19;100.00;102341.22;5009146;28;20029;-70
2023/10/05 11:31:26;;;;;;;7.10;2.65;;;;;;;17.26;100.00;102342.28;5009682;28;20072;-69
2023/10/05 11:34:00;;;;;;;7.38;2.33;;;;;;;17.23;100.00;102343.09;5009126;28;20026;-70
2023/10/05 11:36:33;;;;;;;9.18;2.45;;;;;;;17.11;100.00;102338.38;5008753;28;20170;-69
2023/10/05 11:39:00;;;;;;;11.77;2.63;;;;;;;17.02;100.00;102341.59;5008876;28;20033;-69
2023/10/05 11:41:29;;;;;;;8.27;2.67;;;;;;;17.10;100.00;102347.09;5009263;28;20846;-69